Strathmore Agdm

CPST · Alberta, Kanada

3. Oktober 2022

Uhrzeit Code Wetter Temp. Sichtweite Wolkendecke Wind METAR/SPECI
11:00
V
16 °C 15 mi - Var Var 2 kt METAR CYYC 031700Z VRB02KT 15SM FEW130 16/07 A3017 RMK AC1 AC TR SLP227 DENSITY ALT 4300FT
10:00
V
13 °C 15 mi - Var 000° 0 kt METAR CYYC 031600Z 00000KT 15SM FEW130 13/06 A3017 RMK AC1 SLP230 DENSITY ALT 3900FT
09:00
V
9 °C 15 mi - 190° 190° 2 kt METAR CYYC 031500Z 19002KT 15SM FEW130 09/06 A3017 RMK AC2 SLP232
08:00
V
9 °C 15 mi 13.000 ft 200° 200° 3 kt METAR CYYC 031400Z 20003KT 15SM BKN130 09/05 A3016 RMK AC5 SLP232
07:00
V
8 °C 15 mi 13.000 ft Var 000° 0 kt METAR CYYC 031300Z 00000KT 15SM BKN130 08/05 A3016 RMK AC7 SLP228
06:00
V
8 °C 15 mi - Var 000° 0 kt METAR CYYC 031200Z 00000KT 15SM SCT110 SCT130 08/04 A3016 RMK AC4AC1 AC TR SLP221
05:00
V
8 °C 15 mi - 160° 160° 3 kt METAR CYYC 031100Z 16003KT 15SM SKC 08/05 A3015 RMK SLP217
04:00
V
7 °C 15 mi - 010° 010° 3 kt METAR CYYC 031000Z 01003KT 15SM SKC 07/04 A3015 RMK SLP215
03:00
V
11 °C 15 mi - 340° 340° 6 kt METAR CYYC 030900Z 34006KT 15SM SKC 11/06 A3015 RMK SLP211 DENSITY ALT 3700FT
02:00
V
11 °C 15 mi - 330° 330° 6 kt METAR CYYC 030800Z 33006KT 15SM SKC 11/05 A3014 RMK SLP211 DENSITY ALT 3800FT
01:00
V
11 °C 15 mi - Var Var 2 kt METAR CYYC 030700Z VRB02KT 15SM SKC 11/05 A3012 RMK SLP207 DENSITY ALT 3700FT
00:00
V
12 °C 15 mi - 350° 350° 5 kt METAR CYYC 030600Z 35005KT 310V030 15SM SKC 12/05 A3012 RMK SLP208 DENSITY ALT 3900FT

2. Oktober 2022

Uhrzeit Code Wetter Temp. Sichtweite Wolkendecke Wind METAR/SPECI
23:00
V
12 °C 15 mi - Var 000° 0 kt METAR CYYC 030500Z 00000KT 15SM SKC 12/05 A3012 RMK SLP209 DENSITY ALT 3900FT
22:00
V
13 °C 15 mi - 350° 350° 2 kt METAR CYYC 030400Z 35002KT 15SM SKC 13/05 A3011 RMK SLP213 DENSITY ALT 4100FT
21:00
V
15 °C 15 mi - 340° 340° 4 kt METAR CYYC 030300Z 34004KT 15SM SKC 15/05 A3011 RMK SLP212 DENSITY ALT 4300FT
20:00
V
15 °C 15 mi - 010° 010° 7 kt METAR CYYC 030200Z 01007KT 15SM FEW092 15/05 A3010 RMK AC1 AC TR SLP213 DENSITY ALT 4300FT
19:00
V
18 °C 15 mi - 360° 360° 7 kt METAR CYYC 030100Z 36007KT 15SM FEW190 18/05 A3008 RMK AC1 AC TR SLP199 DENSITY ALT 4700FT
18:00
V
22 °C 15 mi - 360° 360° 10 kt METAR CYYC 030000Z 36010KT 15SM SKC 22/05 A3006 RMK SLP190 DENSITY ALT 5100FT
17:00
V
23 °C 15 mi - 010° 010° 13 kt METAR CYYC 022300Z 01013KT 15SM FEW190 23/04 A3005 RMK AC1 AC TR SLP181 DENSITY ALT 5200FT
16:00
V
23 °C 15 mi - 030° 030° 10 kt METAR CYYC 022200Z 03010KT 320V050 15SM FEW190 23/03 A3003 RMK AC1 AC TR SLP176 DENSITY ALT 5300FT
15:00
V
23 °C 15 mi - Var 000° 0 kt METAR CYYC 022100Z 00000KT 15SM SKC 23/03 A3004 RMK SLP175 DENSITY ALT 5300FT
14:00
V
21 °C 15 mi - 270° 270° 3 kt METAR CYYC 022000Z 27003KT 15SM SKC 21/04 A3005 RMK SLP184 DENSITY ALT 5000FT
13:00
V
20 °C 15 mi - 200° 200° 5 kt METAR CYYC 021900Z 20005KT 150V240 15SM SKC 20/05 A3006 RMK SLP186 DENSITY ALT 4900FT
12:00
V
18 °C 15 mi - 220° 220° 5 kt METAR CYYC 021800Z 22005KT 15SM SKC 18/03 A3006 RMK SLP189 DENSITY ALT 4700FT
11:00
V
15 °C 15 mi - 220° 220° 7 kt METAR CYYC 021700Z 22007KT 15SM SKC 15/04 A3007 RMK SLP193 DENSITY ALT 4400FT
10:00
V
11 °C 15 mi - 190° 190° 6 kt METAR CYYC 021600Z 19006KT 15SM SKC 11/05 A3006 RMK SLP196 DENSITY ALT 3800FT
09:00
V
8 °C 15 mi - 210° 210° 3 kt METAR CYYC 021500Z 21003KT 15SM SKC 08/04 A3005 RMK SLP195
08:00
V
5 °C 15 mi - Var Var 2 kt METAR CYYC 021400Z VRB02KT 15SM SKC 05/03 A3004 RMK SLP192
07:00
V
6 °C 15 mi - 230° 230° 6 kt METAR CYYC 021300Z 23006KT 15SM SKC 06/04 A3003 RMK SLP184
06:00
V
5 °C 15 mi - 190° 190° 6 kt METAR CYYC 021200Z 19006KT 15SM SKC 05/04 A3003 RMK SLP183
05:00
V
7 °C 15 mi - 210° 210° 6 kt METAR CYYC 021100Z 21006KT 15SM FEW140 07/06 A3004 RMK AC1 AC TR SLP181
04:00
V
7 °C 15 mi - 180° 180° 5 kt METAR CYYC 021000Z 18005KT 15SM FEW140 07/06 A3005 RMK AC1 AC TR SLP185
03:00
V
9 °C 15 mi - 180° 180° 5 kt METAR CYYC 020900Z 18005KT 15SM SKC 09/07 A3007 RMK SLP188 DENSITY ALT 3700FT
02:00
V
9 °C 15 mi - 190° 190° 6 kt METAR CYYC 020800Z 19006KT 15SM SKC 09/07 A3007 RMK SLP192
01:00
V
10 °C 15 mi - 190° 190° 6 kt METAR CYYC 020700Z 19006KT 15SM SKC 10/07 A3009 RMK SLP200 DENSITY ALT 3700FT
00:00
V
10 °C 15 mi - 190° 190° 7 kt METAR CYYC 020600Z 19007KT 15SM SKC 10/07 A3010 RMK SLP203 DENSITY ALT 3800FT

1. Oktober 2022

Uhrzeit Code Wetter Temp. Sichtweite Wolkendecke Wind METAR/SPECI
23:00
V
11 °C 15 mi - 180° 180° 7 kt METAR CYYC 020500Z 18007KT 15SM SKC 11/07 A3011 RMK SLP209 DENSITY ALT 3800FT
22:00
V
12 °C 15 mi - 180° 180° 8 kt METAR CYYC 020400Z 18008KT 15SM SKC 12/07 A3011 RMK SLP215 DENSITY ALT 4000FT
21:00
V
14 °C 15 mi - 170° 170° 8 kt METAR CYYC 020300Z 17008KT 15SM FEW230 14/07 A3012 RMK CI1 CI TR SLP220 DENSITY ALT 4100FT
20:00
V
16 °C 20 mi - 160° 160° 9 kt METAR CYYC 020200Z 16009KT 20SM FEW095 FEW220 16/07 A3013 RMK AC1CI1 AC TR SLP221 DENSITY ALT 4400FT
19:00
V
18 °C 20 mi - 160° 160° 12 kt METAR CYYC 020100Z 16012KT 20SM FEW044 FEW130 FEW230 18/08 A3013 RMK CU1AC1CI1 CU TR AC TR CI TR SLP218 DENSITY ALT 4600FT
18:00
V
20 °C 20 mi - 160° 160° 13 kt METAR CYYC 020000Z 16013KT 20SM FEW054 FEW130 FEW230 20/07 A3014 RMK CU1AC1CI1 CU TR AC TR CI TR SLP216 DENSITY ALT 4900FT
17:00
V
22 °C 20 mi - 150° 150° 11 kt METAR CYYC 012300Z 15011KT 20SM FEW057 22/08 A3014 RMK CU1 CU TR TCU ASOCTD SLP217 DENSITY ALT 5000FT
16:00
V
21 °C 20 mi - 170° 170° 12 kt METAR CYYC 012200Z 17012KT 130V200 20SM FEW057 21/07 A3016 RMK CU1 CU TR SLP221 DENSITY ALT 5000FT
15:00
V
21 °C 20 mi - 180° 180° 8 kt METAR CYYC 012100Z 18008KT 140V200 20SM FEW052 21/08 A3017 RMK CU1 CU TR SLP227 DENSITY ALT 4900FT
14:00
V
20 °C 20 mi - 180° 180° 7 kt METAR CYYC 012000Z 18007KT 130V190 20SM FEW050 20/08 A3019 RMK CU1 CU TR SLP235 DENSITY ALT 4700FT
13:00
V
18 °C 20 mi - 200° 200° 5 kt METAR CYYC 011900Z 20005KT 140V220 20SM SKC 18/08 A3021 RMK SLP242 DENSITY ALT 4500FT
12:00
V
16 °C 20 mi - 160° 160° 6 kt METAR CYYC 011800Z 16006KT 140V220 20SM SKC 16/08 A3023 RMK SLP252 DENSITY ALT 4300FT
11:00
V
14 °C 20 mi - 190° 190° 4 kt METAR CYYC 011700Z 19004KT 170V230 20SM SKC 14/08 A3025 RMK SLP260 DENSITY ALT 4000FT
10:00
V
10 °C 20 mi - 190° 190° 2 kt METAR CYYC 011600Z 19002KT 20SM SKC 10/07 A3025 RMK SLP264
09:00
V
7 °C 20 mi - Var 000° 0 kt METAR CYYC 011500Z 00000KT 20SM SKC 07/06 A3025 RMK SLP268
Ältere Daten

Wir und Dritte verfolgen dein Internetverhalten auf unserer Website mit Cookies. Wenn du fortfährst, gehen wir davon aus, dass du mit unserer Cookie-Richtlinie einverstanden bist. Mehr erfahren